Time;durP1;ratioP1;P1;durP2;ratioP2;P2;SDS_P1;SDS_P2;PMS_P1;PMS_P2;Temp;Humidity;BMP_temperature;BMP_pressure;BME280_temperature;BME280_humidity;BME280_pressure;Samples;Min_cycle;Max_cycle;Signal;HPM_P1;HPM_P2
2023/03/29 00:04:14;;;;;;;8.98;5.43;;;;;;;4.45;100.00;101800.91;10344765;28;20127;-69
2023/03/29 00:09:12;;;;;;;9.88;5.00;;;;;;;4.46;100.00;101797.16;10354152;28;20044;-73
2023/03/29 00:14:10;;;;;;;8.02;5.28;;;;;;;4.34;100.00;101798.06;10338665;28;20048;-72
2023/03/29 00:19:08;;;;;;;11.23;5.55;;;;;;;4.30;100.00;101791.50;10352151;28;20050;-72
2023/03/29 00:24:05;;;;;;;10.35;5.38;;;;;;;4.13;100.00;101785.28;10344929;28;20502;-71
2023/03/29 00:29:01;;;;;;;12.60;5.47;;;;;;;4.02;100.00;101788.94;10339629;28;20465;-71
2023/03/29 00:33:57;;;;;;;7.32;4.95;;;;;;;3.87;100.00;101755.16;10365454;28;20050;-72
2023/03/29 00:38:55;;;;;;;8.43;5.25;;;;;;;3.96;100.00;101745.53;10348887;28;20040;-72
2023/03/29 00:43:58;;;;;;;11.68;5.63;;;;;;;4.07;100.00;101737.59;10343580;28;20051;-72
2023/03/29 00:49:11;;;;;;;9.57;4.95;;;;;;;4.19;100.00;101719.34;10355422;28;20045;-73
2023/03/29 00:54:13;;;;;;;7.63;5.68;;;;;;;4.19;100.00;101714.75;10332856;28;20087;-70
2023/03/29 00:59:14;;;;;;;6.13;4.90;;;;;;;4.24;100.00;101705.88;10345264;28;20128;-72
2023/03/29 01:04:17;;;;;;;9.60;5.25;;;;;;;4.20;100.00;101697.44;10340517;28;20087;-69
2023/03/29 01:09:17;;;;;;;12.82;6.35;;;;;;;4.17;100.00;101683.59;10352094;28;20040;-70
2023/03/29 01:14:20;;;;;;;6.93;4.95;;;;;;;4.25;100.00;101685.03;10348360;28;20151;-71
2023/03/29 01:19:20;;;;;;;10.68;6.10;;;;;;;4.29;100.00;101676.16;10336945;28;20078;-70
2023/03/29 01:24:45;;;;;;;10.45;5.22;;;;;;;4.28;100.00;101674.53;10353941;28;20044;-70
2023/03/29 01:29:56;;;;;;;11.07;5.55;;;;;;;4.25;100.00;101658.78;10342236;28;20048;-72
2023/03/29 01:35:00;;;;;;;7.05;5.53;;;;;;;4.17;100.00;101648.41;10343604;28;20084;-72
2023/03/29 01:39:56;;;;;;;12.55;5.93;;;;;;;4.15;100.00;101637.00;10347109;28;20055;-72
2023/03/29 01:45:21;;;;;;;9.52;5.60;;;;;;;4.13;100.00;101633.72;10338787;28;20049;-72
2023/03/29 01:50:44;;;;;;;10.00;5.78;;;;;;;4.00;100.00;101629.50;10342632;28;20501;-69
2023/03/29 01:55:46;;;;;;;12.60;5.38;;;;;;;3.85;100.00;101624.72;10323279;28;20055;-68
2023/03/29 02:00:44;;;;;;;8.00;5.00;;;;;;;3.79;100.00;101617.63;10335167;28;20144;-68
2023/03/29 02:05:41;;;;;;;12.40;5.38;;;;;;;3.76;100.00;101609.97;10355111;28;20044;-67
2023/03/29 02:10:38;;;;;;;7.35;4.70;;;;;;;3.71;100.00;101599.09;10349466;28;20070;-68
2023/03/29 02:15:35;;;;;;;8.15;4.90;;;;;;;3.76;100.00;101586.47;10344349;28;20515;-69
2023/03/29 02:20:37;;;;;;;7.68;5.15;;;;;;;3.80;100.00;101589.47;10343382;28;20044;-69
2023/03/29 02:25:36;;;;;;;13.82;5.90;;;;;;;3.71;100.00;101582.88;10330319;28;20049;-69
2023/03/29 02:30:45;;;;;;;8.98;5.30;;;;;;;3.59;100.00;101589.19;10342381;28;22106;-71
2023/03/29 02:35:52;;;;;;;10.00;5.43;;;;;;;3.55;100.00;101590.78;10341423;28;20150;-71
2023/03/29 02:40:48;;;;;;;7.97;5.97;;;;;;;3.65;100.00;101567.66;10341672;28;20056;-71
2023/03/29 02:45:46;;;;;;;8.07;5.78;;;;;;;3.63;100.00;101559.78;10338384;28;20043;-70
2023/03/29 02:50:46;;;;;;;9.20;5.43;;;;;;;3.61;100.00;101555.69;10347022;28;20043;-68
2023/03/29 02:55:44;;;;;;;8.20;5.63;;;;;;;3.61;100.00;101553.81;10336556;28;20461;-67
2023/03/29 03:00:45;;;;;;;9.02;5.18;;;;;;;3.62;100.00;101543.81;10339355;28;20082;-68
2023/03/29 03:05:42;;;;;;;7.00;5.32;;;;;;;3.60;100.00;101533.25;10328679;28;20798;-68
2023/03/29 03:10:38;;;;;;;10.07;5.43;;;;;;;3.53;100.00;101527.22;10347686;28;20039;-68
2023/03/29 03:15:35;;;;;;;7.82;5.38;;;;;;;3.37;100.00;101518.06;10343693;28;20044;-70
2023/03/29 03:20:32;;;;;;;10.13;5.85;;;;;;;3.26;100.00;101506.31;10333322;28;20075;-71
2023/03/29 03:25:29;;;;;;;9.52;5.75;;;;;;;3.22;100.00;101509.75;10342170;28;20049;-71
2023/03/29 03:30:26;;;;;;;8.00;5.82;;;;;;;3.21;100.00;101513.53;10340331;28;20105;-70
2023/03/29 03:35:22;;;;;;;11.20;5.65;;;;;;;3.18;100.00;101504.03;10331470;28;20048;-70
2023/03/29 03:40:19;;;;;;;12.80;5.50;;;;;;;3.22;100.00;101501.66;10333521;28;20090;-70
2023/03/29 03:45:16;;;;;;;7.78;5.55;;;;;;;3.26;100.00;101500.09;10329973;28;20051;-69
2023/03/29 03:50:12;;;;;;;13.63;6.53;;;;;;;3.26;100.00;101494.69;10351874;28;20094;-69
2023/03/29 03:55:09;;;;;;;9.80;6.32;;;;;;;3.30;100.00;101493.13;10345949;28;20070;-67
2023/03/29 04:00:16;;;;;;;8.98;6.53;;;;;;;3.31;100.00;101483.94;10322963;28;20047;-68
2023/03/29 04:05:13;;;;;;;9.07;5.93;;;;;;;3.33;100.00;101479.09;10330212;28;20372;-68
2023/03/29 04:10:10;;;;;;;12.18;6.90;;;;;;;3.33;100.00;101487.19;10330458;28;20090;-68
2023/03/29 04:15:07;;;;;;;11.55;6.80;;;;;;;3.42;100.00;101493.81;10344896;28;20052;-69
2023/03/29 04:20:11;;;;;;;10.18;6.57;;;;;;;3.44;100.00;101486.28;10350026;28;20140;-68
2023/03/29 04:25:09;;;;;;;7.75;6.18;;;;;;;3.44;100.00;101480.88;10349362;27;20051;-68
2023/03/29 04:30:06;;;;;;;12.75;6.80;;;;;;;3.47;100.00;101484.94;10342635;28;20036;-68
2023/03/29 04:35:03;;;;;;;15.65;7.40;;;;;;;3.45;100.00;101482.47;10344638;28;21012;-68
2023/03/29 04:40:00;;;;;;;16.52;6.60;;;;;;;3.44;100.00;101480.88;10350947;28;20044;-67
2023/03/29 04:44:57;;;;;;;8.75;6.70;;;;;;;3.43;100.00;101476.50;10346180;28;20049;-67
2023/03/29 04:49:54;;;;;;;10.80;7.03;;;;;;;3.40;100.00;101463.50;10341028;28;20163;-68
2023/03/29 04:54:50;;;;;;;17.02;7.53;;;;;;;3.40;100.00;101473.50;10350984;28;20054;-68
2023/03/29 04:59:47;;;;;;;9.73;7.45;;;;;;;3.41;100.00;101465.13;10360566;28;20044;-68
2023/03/29 05:04:43;;;;;;;11.40;7.60;;;;;;;3.41;100.00;101459.72;10338851;28;20073;-68
2023/03/29 05:09:40;;;;;;;11.10;8.60;;;;;;;3.39;100.00;101456.47;10335561;28;20044;-68
2023/03/29 05:14:37;;;;;;;12.02;7.50;;;;;;;3.44;100.00;101443.00;10346583;28;20063;-68
2023/03/29 05:19:35;;;;;;;18.25;9.20;;;;;;;3.47;100.00;101453.31;10344327;28;20105;-68
2023/03/29 05:24:31;;;;;;;17.23;9.63;;;;;;;3.39;100.00;101451.06;10335717;28;20059;-68
2023/03/29 05:29:28;;;;;;;10.82;8.95;;;;;;;3.48;100.00;101444.16;10352077;28;20072;-68
2023/03/29 05:34:25;;;;;;;13.75;11.30;;;;;;;3.51;100.00;101449.03;10356125;28;20075;-68
2023/03/29 05:39:22;;;;;;;18.08;10.02;;;;;;;3.59;100.00;101445.88;10348743;28;20048;-68
2023/03/29 05:44:18;;;;;;;16.60;9.77;;;;;;;3.63;100.00;101434.56;10347111;28;20051;-68
2023/03/29 05:49:15;;;;;;;25.40;10.48;;;;;;;3.73;100.00;101426.56;10339174;28;20119;-68
2023/03/29 05:54:11;;;;;;;13.10;9.27;;;;;;;3.84;100.00;101417.47;10346603;28;20048;-68
2023/03/29 05:59:08;;;;;;;13.57;10.18;;;;;;;3.85;100.00;101424.50;10353255;28;20139;-68
2023/03/29 06:04:05;;;;;;;15.88;9.38;;;;;;;3.87;100.00;101419.66;10334834;28;20094;-68
2023/03/29 06:09:02;;;;;;;12.80;10.35;;;;;;;3.86;100.00;101418.03;10347827;28;20048;-68
2023/03/29 06:13:59;;;;;;;18.13;10.10;;;;;;;3.96;100.00;101422.72;10330318;28;20059;-68
2023/03/29 06:18:56;;;;;;;14.63;10.20;;;;;;;4.05;100.00;101428.50;10345675;28;20044;-68
2023/03/29 06:23:52;;;;;;;16.80;10.38;;;;;;;4.13;100.00;101428.03;10338852;28;20083;-68
2023/03/29 06:28:49;;;;;;;10.77;9.65;;;;;;;4.31;100.00;101424.94;10334165;28;20055;-69
2023/03/29 06:33:48;;;;;;;13.20;9.93;;;;;;;4.19;100.00;101432.41;10338550;28;20055;-68
2023/03/29 06:38:44;;;;;;;17.30;10.65;;;;;;;4.21;100.00;101430.28;10344379;28;20123;-68
2023/03/29 06:43:42;;;;;;;12.63;10.00;;;;;;;4.22;100.00;101443.56;10354069;28;20497;-68
2023/03/29 06:48:39;;;;;;;11.63;10.20;;;;;;;4.29;100.00;101437.91;10333850;28;20535;-68
2023/03/29 06:53:36;;;;;;;15.48;10.25;;;;;;;4.35;100.00;101423.34;10334012;28;20143;-68
2023/03/29 06:58:33;;;;;;;11.02;9.93;;;;;;;4.45;100.00;101419.09;10334899;28;20482;-68
2023/03/29 07:03:30;;;;;;;15.85;10.45;;;;;;;4.52;100.00;101423.19;10337334;28;20044;-68
2023/03/29 07:08:30;;;;;;;13.32;9.85;;;;;;;4.58;100.00;101418.66;10339150;28;20101;-67
2023/03/29 07:13:26;;;;;;;18.83;10.55;;;;;;;4.74;100.00;101420.38;10341817;28;20046;-67
2023/03/29 07:18:23;;;;;;;13.50;9.45;;;;;;;4.76;100.00;101420.13;10347120;28;20414;-69
2023/03/29 07:23:20;;;;;;;12.95;9.82;;;;;;;4.89;100.00;101414.22;10340670;28;20071;-67
2023/03/29 07:28:17;;;;;;;14.75;10.15;;;;;;;4.95;100.00;101417.78;10337526;28;20745;-67
2023/03/29 07:33:14;;;;;;;11.48;9.68;;;;;;;5.09;100.00;101415.44;10339024;28;20060;-67
2023/03/29 07:38:10;;;;;;;14.70;10.23;;;;;;;5.28;100.00;101416.59;10341024;28;20123;-67
2023/03/29 07:43:09;;;;;;;12.30;9.68;;;;;;;5.22;100.00;101413.06;10338287;28;20071;-67
2023/03/29 07:48:07;;;;;;;11.68;9.68;;;;;;;5.38;100.00;101402.25;10342130;28;20048;-67
2023/03/29 07:53:03;;;;;;;12.18;9.10;;;;;;;5.48;100.00;101405.81;10343394;28;20109;-67
2023/03/29 07:58:00;;;;;;;12.77;10.15;;;;;;;5.59;100.00;101411.25;10339120;28;20116;-67
2023/03/29 08:02:56;;;;;;;11.63;10.02;;;;;;;5.67;100.00;101406.13;10352738;28;20062;-67
2023/03/29 08:07:53;;;;;;;13.55;9.73;;;;;;;5.67;100.00;101405.31;10344540;28;20488;-67
2023/03/29 08:12:51;;;;;;;12.38;9.18;;;;;;;5.73;100.00;101400.72;10346348;28;20052;-67
2023/03/29 08:17:47;;;;;;;10.93;9.65;;;;;;;5.79;100.00;101388.78;10351014;28;20040;-67
2023/03/29 08:22:44;;;;;;;11.15;9.30;;;;;;;5.96;100.00;101394.78;10355140;28;20736;-67
2023/03/29 08:27:42;;;;;;;12.45;9.07;;;;;;;6.03;100.00;101389.91;10355782;28;20055;-67
2023/03/29 08:32:38;;;;;;;12.35;9.90;;;;;;;6.00;100.00;101384.22;10339907;28;20088;-67
2023/03/29 08:37:36;;;;;;;11.50;8.57;;;;;;;6.28;100.00;101377.44;10343122;28;20083;-67
2023/03/29 08:42:57;;;;;;;14.10;9.32;;;;;;;6.58;100.00;101373.06;10347408;28;20050;-67
2023/03/29 08:48:11;;;;;;;10.68;9.55;;;;;;;6.70;100.00;101370.84;10342317;28;20047;-67
2023/03/29 08:53:17;;;;;;;10.70;9.60;;;;;;;6.70;100.00;101359.97;10340034;28;20046;-67
2023/03/29 08:58:18;;;;;;;10.00;9.00;;;;;;;6.83;100.00;101370.28;10350806;28;20040;-67
2023/03/29 09:03:21;;;;;;;13.38;9.63;;;;;;;6.85;100.00;101365.38;10338306;28;20044;-67
2023/03/29 09:08:21;;;;;;;9.35;8.43;;;;;;;7.01;100.00;101365.31;10336587;28;20044;-67
2023/03/29 09:13:51;;;;;;;11.00;7.95;;;;;;;7.02;100.00;101358.78;10334610;28;20464;-67
2023/03/29 09:19:00;;;;;;;9.93;8.68;;;;;;;7.26;100.00;101356.22;10342537;28;20040;-67
2023/03/29 09:24:19;;;;;;;10.25;8.65;;;;;;;7.44;100.00;101368.38;10345910;28;20177;-67
2023/03/29 09:29:44;;;;;;;12.02;8.95;;;;;;;7.44;100.00;101357.50;10325095;28;20036;-66
2023/03/29 09:34:43;;;;;;;8.70;7.80;;;;;;;7.41;100.00;101352.63;10336108;28;20059;-69
2023/03/29 09:39:40;;;;;;;8.90;7.68;;;;;;;7.55;100.00;101348.19;10347000;28;20075;-67
2023/03/29 09:44:45;;;;;;;9.25;8.10;;;;;;;7.68;100.00;101347.56;10350293;28;20040;-67
2023/03/29 09:49:46;;;;;;;13.57;8.07;;;;;;;7.89;100.00;101344.66;10341354;27;20509;-67
2023/03/29 09:54:43;;;;;;;12.88;8.73;;;;;;;8.40;100.00;101330.63;10341978;28;20097;-67
2023/03/29 09:59:39;;;;;;;9.23;8.32;;;;;;;8.62;100.00;101321.94;10337743;28;20052;-67
2023/03/29 10:04:37;;;;;;;11.05;9.02;;;;;;;8.45;100.00;101327.88;10341842;28;20054;-67
2023/03/29 10:09:34;;;;;;;9.27;8.32;;;;;;;8.51;100.00;101310.34;10346511;28;20452;-68
2023/03/29 10:14:40;;;;;;;15.98;10.15;;;;;;;8.33;100.00;101313.75;10338203;28;20083;-69
2023/03/29 10:19:36;;;;;;;9.43;8.48;;;;;;;8.25;100.00;101317.13;10348672;27;20036;-66
2023/03/29 10:24:32;;;;;;;11.63;8.77;;;;;;;8.38;100.00;101316.47;10333196;28;20052;-68
2023/03/29 10:29:42;;;;;;;14.45;8.82;;;;;;;8.17;100.00;101322.09;10343325;28;20060;-68
2023/03/29 10:34:38;;;;;;;11.48;8.98;;;;;;;8.09;100.00;101317.25;10340645;28;20076;-69
2023/03/29 10:39:35;;;;;;;10.60;9.50;;;;;;;8.34;100.00;101315.41;10335489;28;20143;-67
2023/03/29 10:44:35;;;;;;;11.95;9.45;;;;;;;8.58;100.00;101299.91;10343259;28;20649;-69
2023/03/29 10:49:43;;;;;;;10.20;9.15;;;;;;;9.11;100.00;101295.44;10339153;28;20072;-69
2023/03/29 10:54:40;;;;;;;13.80;9.98;;;;;;;9.04;100.00;101296.59;10328284;28;20046;-69
2023/03/29 10:59:49;;;;;;;10.15;9.15;;;;;;;8.83;100.00;101311.63;10334707;28;20040;-67
2023/03/29 11:05:05;;;;;;;10.68;9.35;;;;;;;8.53;100.00;101308.13;10332940;28;20067;-69
2023/03/29 11:10:40;;;;;;;10.25;9.25;;;;;;;8.72;100.00;101294.56;10339765;28;20075;-70
2023/03/29 11:15:59;;;;;;;10.63;9.23;;;;;;;8.60;100.00;101281.34;10337253;28;20040;-69
2023/03/29 11:21:15;;;;;;;13.40;10.48;;;;;;;8.57;100.00;101281.94;10336609;28;20044;-69
2023/03/29 11:26:23;;;;;;;10.90;9.70;;;;;;;8.61;100.00;101282.19;10335728;28;20048;-69
2023/03/29 11:31:20;;;;;;;11.35;10.13;;;;;;;8.43;100.00;101289.19;10353577;28;20121;-69
2023/03/29 11:36:31;;;;;;;10.88;9.77;;;;;;;8.47;100.00;101287.50;10359246;28;20046;-69
2023/03/29 11:41:33;;;;;;;13.27;10.68;;;;;;;8.42;100.00;101290.28;10345053;28;20040;-69
2023/03/29 11:46:50;;;;;;;11.80;10.60;;;;;;;8.28;100.00;101294.75;10336466;28;20057;-69
2023/03/29 11:51:50;;;;;;;14.90;10.32;;;;;;;8.18;100.00;101301.94;10347627;28;20116;-69
2023/03/29 11:56:54;;;;;;;12.82;11.00;;;;;;;8.17;100.00;101292.16;10343843;28;20732;-69
2023/03/29 12:01:55;;;;;;;12.43;10.35;;;;;;;8.58;100.00;101299.91;10344758;28;20076;-68
2023/03/29 12:07:12;;;;;;;12.00;10.77;;;;;;;8.55;100.00;101286.06;10328066;28;20059;-68
2023/03/29 12:12:23;;;;;;;13.77;10.55;;;;;;;8.49;100.00;101284.47;10352926;28;20067;-68
2023/03/29 12:17:27;;;;;;;16.65;11.02;;;;;;;8.48;100.00;101283.66;10337119;28;20048;-69
2023/03/29 12:22:23;;;;;;;12.20;11.00;;;;;;;8.23;100.00;101282.81;10347424;28;20123;-68
2023/03/29 12:27:45;;;;;;;11.40;10.30;;;;;;;8.37;100.00;101282.13;10356694;28;20040;-68
2023/03/29 12:33:07;;;;;;;13.65;10.93;;;;;;;8.71;100.00;101267.59;10339508;28;20072;-69
2023/03/29 12:38:13;;;;;;;12.52;10.82;;;;;;;8.68;100.00;101271.72;10334590;28;20123;-69
2023/03/29 12:43:22;;;;;;;11.48;10.27;;;;;;;8.69;100.00;101267.09;10343346;28;20481;-69
2023/03/29 12:48:26;;;;;;;12.52;11.25;;;;;;;8.55;100.00;101278.69;10335232;28;20642;-69
2023/03/29 12:53:35;;;;;;;13.07;11.75;;;;;;;8.61;100.00;101271.28;10339265;28;20058;-69
2023/03/29 12:58:38;;;;;;;15.77;11.73;;;;;;;9.19;100.00;101260.13;10347284;28;20051;-69
2023/03/29 13:03:47;;;;;;;12.23;11.13;;;;;;;9.73;100.00;101247.00;10336905;28;20052;-69
2023/03/29 13:08:43;;;;;;;14.30;12.15;;;;;;;9.73;100.00;101247.00;10340128;27;20086;-69
2023/03/29 13:13:42;;;;;;;13.40;11.35;;;;;;;9.55;100.00;101247.84;10333425;28;20139;-69
2023/03/29 13:18:53;;;;;;;13.23;11.85;;;;;;;9.56;100.00;101257.66;10343112;28;20079;-69
2023/03/29 13:24:12;;;;;;;12.93;11.52;;;;;;;9.68;100.00;101231.53;10331337;28;20076;-69
2023/03/29 13:29:18;;;;;;;13.77;12.35;;;;;;;9.76;100.00;101243.66;10335152;28;20133;-69
2023/03/29 13:34:34;;;;;;;15.57;11.25;;;;;;;9.68;100.00;101238.91;10338814;28;20072;-69
2023/03/29 13:39:35;;;;;;;12.05;10.90;;;;;;;10.01;100.00;101230.69;10344411;28;20044;-69
2023/03/29 13:44:47;;;;;;;12.02;10.80;;;;;;;10.13;100.00;101227.47;10353487;28;20754;-69
2023/03/29 13:49:53;;;;;;;10.98;9.88;;;;;;;10.18;100.00;101230.88;10341225;28;20037;-69
2023/03/29 13:55:07;;;;;;;11.55;10.40;;;;;;;11.30;100.00;101213.22;10335282;28;20044;-69
2023/03/29 14:00:12;;;;;;;11.45;10.35;;;;;;;11.37;100.00;101208.13;10339274;28;20127;-69
2023/03/29 14:05:13;;;;;;;16.88;10.40;;;;;;;10.76;100.00;101206.81;10336726;28;20044;-68
2023/03/29 14:10:16;;;;;;;12.77;11.55;;;;;;;10.85;100.00;101194.00;10339871;28;20101;-68
2023/03/29 14:15:20;;;;;;;11.77;10.68;;;;;;;10.70;100.00;101182.31;10341832;28;20048;-68
2023/03/29 14:20:17;;;;;;;11.50;10.38;;;;;;;10.36;100.00;101187.41;10331491;28;20089;-67
2023/03/29 14:25:18;;;;;;;11.48;10.38;;;;;;;10.48;100.00;101184.97;10341855;28;20610;-67
2023/03/29 14:30:20;;;;;;;12.35;11.10;;;;;;;10.18;100.00;101181.72;10338929;27;20118;-68
2023/03/29 14:35:17;;;;;;;;;;;;;;;10.11;100.00;101192.22;10352784;28;20420;-69
2023/03/29 14:40:19;;;;;;;10.23;9.30;;;;;;;9.95;100.00;101188.97;10337986;28;20015;-68
2023/03/29 14:45:22;;;;;;;11.40;10.10;;;;;;;9.81;100.00;101185.41;10331053;28;20051;-68
2023/03/29 14:50:25;;;;;;;12.50;11.30;;;;;;;9.71;100.00;101189.16;10341733;28;20042;-68
2023/03/29 14:55:22;;;;;;;12.73;11.52;;;;;;;9.55;100.00;101187.81;10334596;28;20067;-68
2023/03/29 15:00:42;;;;;;;11.93;10.60;;;;;;;9.57;100.00;101185.59;10330506;28;20395;-68
2023/03/29 15:05:42;;;;;;;12.10;10.90;;;;;;;9.38;100.00;101185.63;10332697;27;20043;-67
2023/03/29 15:10:39;;;;;;;15.88;11.48;;;;;;;9.36;100.00;101183.19;10332731;28;20047;-67
2023/03/29 15:15:39;;;;;;;12.10;10.90;;;;;;;9.38;100.00;101178.25;10345699;28;20071;-67
2023/03/29 15:20:38;;;;;;;12.52;11.23;;;;;;;9.42;100.00;101182.00;10331616;28;20068;-66
2023/03/29 15:25:37;;;;;;;13.35;12.05;;;;;;;9.46;100.00;101172.09;10340950;27;20049;-67
2023/03/29 15:30:42;;;;;;;13.40;12.02;;;;;;;9.55;100.00;101174.16;10345144;27;20115;-68
2023/03/29 15:35:50;;;;;;;14.20;12.25;;;;;;;9.60;100.00;101160.41;10341954;28;20089;-68
2023/03/29 15:40:47;;;;;;;13.05;11.75;;;;;;;9.67;100.00;101155.34;10335973;28;20037;-68
2023/03/29 15:45:43;;;;;;;13.30;11.95;;;;;;;9.77;100.00;101149.72;10349891;28;20546;-68
2023/03/29 15:50:44;;;;;;;13.30;12.00;;;;;;;9.76;100.00;101142.63;10335867;28;20040;-68
2023/03/29 15:55:43;;;;;;;13.90;12.52;;;;;;;9.80;100.00;101132.72;10342220;28;20486;-69
2023/03/29 16:00:43;;;;;;;13.55;12.25;;;;;;;9.78;100.00;101134.94;10326481;27;20040;-68
2023/03/29 16:05:42;;;;;;;12.77;11.60;;;;;;;9.75;100.00;101121.06;10334779;28;20051;-68
2023/03/29 16:10:42;;;;;;;14.00;12.68;;;;;;;9.80;100.00;101116.34;10330447;28;20135;-69
2023/03/29 16:15:41;;;;;;;14.02;12.57;;;;;;;9.89;100.00;101108.25;10336089;28;20048;-68
2023/03/29 16:20:37;;;;;;;13.85;12.43;;;;;;;9.96;100.00;101108.66;10346965;28;20543;-71
2023/03/29 16:25:36;;;;;;;15.02;13.27;;;;;;;10.00;100.00;101114.31;10343323;28;20474;-68
2023/03/29 16:30:35;;;;;;;13.80;12.30;;;;;;;9.98;100.00;101111.06;10338502;28;20119;-68
2023/03/29 16:35:34;;;;;;;14.63;13.23;;;;;;;10.01;100.00;101105.03;10329853;28;20046;-68
2023/03/29 16:40:32;;;;;;;18.75;14.73;;;;;;;9.93;100.00;101108.44;10348669;28;20127;-68
2023/03/29 16:45:28;;;;;;;16.10;14.13;;;;;;;9.89;100.00;101114.53;10341541;28;20062;-69
2023/03/29 16:50:25;;;;;;;18.63;14.65;;;;;;;9.89;100.00;101106.34;10342003;28;20642;-68
2023/03/29 16:55:21;;;;;;;16.55;14.90;;;;;;;9.89;100.00;101109.06;10336396;28;20121;-69
2023/03/29 17:00:19;;;;;;;16.98;14.15;;;;;;;9.86;100.00;101109.69;10349497;28;20482;-68
2023/03/29 17:05:17;;;;;;;15.68;14.27;;;;;;;9.86;100.00;101103.38;10339809;28;20044;-68
2023/03/29 17:10:14;;;;;;;16.45;14.75;;;;;;;9.85;100.00;101113.50;10345997;28;20626;-68
2023/03/29 17:15:10;;;;;;;15.27;13.77;;;;;;;9.83;100.00;101110.28;10334530;28;20059;-68
2023/03/29 17:20:10;;;;;;;15.23;13.73;;;;;;;9.81;100.00;101112.50;10336498;28;20559;-68
2023/03/29 17:25:07;;;;;;;15.00;13.60;;;;;;;9.79;100.00;101108.44;10335233;28;20106;-67
2023/03/29 17:30:05;;;;;;;15.07;13.25;;;;;;;9.74;100.00;101101.16;10327765;28;20458;-67
2023/03/29 17:35:02;;;;;;;14.20;12.80;;;;;;;9.73;100.00;101099.56;10337896;28;20056;-70
2023/03/29 17:39:59;;;;;;;15.43;13.45;;;;;;;9.66;100.00;101099.16;10330268;28;20395;-67
2023/03/29 17:44:56;;;;;;;15.75;14.20;;;;;;;9.67;100.00;101100.75;10349699;28;20080;-68
2023/03/29 17:49:52;;;;;;;19.50;13.93;;;;;;;9.71;100.00;101107.25;10342928;27;20561;-68
2023/03/29 17:54:49;;;;;;;15.35;13.68;;;;;;;9.66;100.00;101104.59;10340297;28;20044;-68
2023/03/29 17:59:47;;;;;;;16.02;13.93;;;;;;;9.66;100.00;101093.69;10350291;27;20044;-68
2023/03/29 18:04:44;;;;;;;14.88;13.40;;;;;;;9.66;100.00;101096.41;10347619;28;20123;-68
2023/03/29 18:09:40;;;;;;;24.02;15.75;;;;;;;9.66;100.00;101099.16;10345170;28;20040;-68
2023/03/29 18:14:37;;;;;;;16.13;14.32;;;;;;;9.70;100.00;101094.72;10339918;28;20118;-68
2023/03/29 18:19:33;;;;;;;17.52;14.02;;;;;;;9.71;100.00;101107.25;10336939;28;20037;-68
2023/03/29 18:24:30;;;;;;;15.45;13.93;;;;;;;9.65;100.00;101087.44;10344001;28;20056;-66
2023/03/29 18:29:26;;;;;;;16.65;14.80;;;;;;;9.59;100.00;101082.38;10346719;28;20043;-68
2023/03/29 18:34:23;;;;;;;15.90;14.38;;;;;;;9.55;100.00;101073.94;10341234;28;20066;-68
2023/03/29 18:39:19;;;;;;;16.88;14.45;;;;;;;9.51;100.00;101069.41;10338746;28;20562;-67
2023/03/29 18:44:16;;;;;;;18.00;16.10;;;;;;;9.47;100.00;101075.47;10340682;28;20509;-67
2023/03/29 18:49:12;;;;;;;16.13;14.52;;;;;;;9.43;100.00;101081.81;10336637;28;20075;-67
2023/03/29 18:54:09;;;;;;;16.80;15.20;;;;;;;9.40;100.00;101085.13;10344634;28;20044;-68
2023/03/29 18:59:07;;;;;;;16.27;14.68;;;;;;;9.38;100.00;101082.72;10340842;28;20497;-67
2023/03/29 19:04:04;;;;;;;17.02;14.48;;;;;;;9.32;100.00;101094.84;10341447;28;20070;-67
2023/03/29 19:09:03;;;;;;;16.10;14.57;;;;;;;9.35;100.00;101082.50;10341332;28;20039;-68
2023/03/29 19:14:03;;;;;;;15.68;14.00;;;;;;;9.29;100.00;101073.63;10328465;28;20051;-67
2023/03/29 19:19:01;;;;;;;17.55;15.15;;;;;;;9.23;100.00;101063.91;10343067;28;20051;-68
2023/03/29 19:23:59;;;;;;;17.05;15.35;;;;;;;9.21;100.00;101082.47;10333666;28;20052;-67
2023/03/29 19:28:59;;;;;;;17.33;15.50;;;;;;;9.17;100.00;101081.47;10334852;28;20044;-68
2023/03/29 19:33:56;;;;;;;19.45;14.70;;;;;;;9.16;100.00;101074.38;10345129;28;20226;-67
2023/03/29 19:38:53;;;;;;;17.42;15.75;;;;;;;9.14;100.00;101082.06;10343347;27;20086;-68
2023/03/29 19:43:54;;;;;;;17.60;15.57;;;;;;;9.11;100.00;101072.56;10333841;28;20068;-67
2023/03/29 19:48:54;;;;;;;17.73;15.95;;;;;;;9.08;100.00;101064.19;10329010;28;20058;-67
2023/03/29 19:53:51;;;;;;;17.23;15.55;;;;;;;9.09;100.00;101065.78;10337908;28;20780;-67
2023/03/29 19:58:51;;;;;;;19.30;17.23;;;;;;;9.14;100.00;101065.69;10350997;27;20649;-67
2023/03/29 20:03:48;;;;;;;18.20;16.30;;;;;;;9.12;100.00;101062.44;10343708;27;20138;-68
2023/03/29 20:08:46;;;;;;;17.77;16.08;;;;;;;9.11;100.00;101060.84;10346744;28;20052;-67
2023/03/29 20:13:44;;;;;;;20.08;16.88;;;;;;;9.02;100.00;101047.88;10344081;28;20051;-70
2023/03/29 20:18:43;;;;;;;19.50;17.52;;;;;;;8.98;100.00;101037.88;10353595;28;20040;-70
2023/03/29 20:23:40;;;;;;;17.67;15.93;;;;;;;8.99;100.00;101037.56;10333696;28;20052;-70
2023/03/29 20:28:36;;;;;;;19.60;17.27;;;;;;;8.99;100.00;101026.66;10353370;28;20064;-72
2023/03/29 20:33:33;;;;;;;18.48;16.48;;;;;;;9.01;100.00;101019.00;10338915;28;20036;-71
2023/03/29 20:38:30;;;;;;;19.48;17.45;;;;;;;8.98;100.00;101008.69;10337313;28;20461;-71
2023/03/29 20:43:28;;;;;;;18.33;16.52;;;;;;;8.98;100.00;100997.78;10343049;28;20055;-71
2023/03/29 20:48:31;;;;;;;16.27;14.57;;;;;;;8.95;100.00;101000.28;10342126;28;20048;-71
2023/03/29 20:53:32;;;;;;;18.23;16.33;;;;;;;8.89;100.00;100988.69;10344924;28;20485;-71
2023/03/29 20:58:30;;;;;;;18.35;15.77;;;;;;;8.88;100.00;100989.78;10346681;28;20425;-71
2023/03/29 21:03:27;;;;;;;17.42;15.70;;;;;;;8.87;100.00;100979.97;10340128;28;20041;-71
2023/03/29 21:08:27;;;;;;;17.73;15.93;;;;;;;8.85;100.00;100976.75;10339734;28;20089;-73
2023/03/29 21:13:24;;;;;;;17.50;15.70;;;;;;;8.86;100.00;100970.16;10341231;28;20056;-72
2023/03/29 21:18:22;;;;;;;17.30;15.38;;;;;;;8.82;100.00;100971.91;10358366;28;20131;-70
2023/03/29 21:23:18;;;;;;;18.92;15.38;;;;;;;8.78;100.00;100966.22;10340824;28;20528;-72
2023/03/29 21:28:15;;;;;;;17.75;15.90;;;;;;;8.83;100.00;100968.84;10336405;28;20487;-71
2023/03/29 21:33:11;;;;;;;18.73;16.83;;;;;;;8.85;100.00;100954.94;10338705;28;20097;-71
2023/03/29 21:38:08;;;;;;;17.55;15.70;;;;;;;8.81;100.00;100962.88;10350281;28;20288;-72
2023/03/29 21:43:05;;;;;;;17.25;15.45;;;;;;;8.84;100.00;100950.56;10341740;28;20040;-72
2023/03/29 21:48:01;;;;;;;17.13;15.35;;;;;;;8.83;100.00;100946.25;10336619;28;20136;-72
2023/03/29 21:52:57;;;;;;;18.38;16.35;;;;;;;8.79;100.00;100956.94;10352322;28;20093;-72
2023/03/29 21:57:54;;;;;;;20.60;16.13;;;;;;;8.76;100.00;100951.28;10341476;28;20051;-73
2023/03/29 22:02:51;;;;;;;18.98;16.17;;;;;;;8.77;100.00;100936.53;10338265;28;20487;-72
2023/03/29 22:07:49;;;;;;;17.42;15.40;;;;;;;8.75;100.00;100927.84;10348170;28;20795;-72
2023/03/29 22:12:46;;;;;;;18.80;16.85;;;;;;;8.74;100.00;100921.59;10341243;28;20047;-73
2023/03/29 22:17:44;;;;;;;18.92;16.08;;;;;;;8.75;100.00;100906.03;10334467;28;20044;-71
2023/03/29 22:22:49;;;;;;;19.55;16.30;;;;;;;8.73;100.00;100908.28;10338344;28;20048;-71
2023/03/29 22:27:50;;;;;;;19.50;16.38;;;;;;;8.74;100.00;100905.22;10336911;28;20517;-73
2023/03/29 22:32:48;;;;;;;19.38;16.48;;;;;;;8.70;100.00;100906.13;10335245;28;20058;-72
2023/03/29 22:37:46;;;;;;;19.77;17.70;;;;;;;8.71;100.00;100899.59;10342354;28;20040;-72
2023/03/29 22:42:43;;;;;;;22.73;18.60;;;;;;;8.73;100.00;100886.47;10326555;28;20078;-75